Latest Weather Observations for Smithton

IDT60801

Issued at 3:41 pm EDT Tuesday 18 January 2022 (issued every 10 minutes, with the page automatically refreshed every 10 minutes)

About weather observations | Map of weather stations | Latest weather observations for TAS | Other Formats
Station Details ID: 091292 Name: SMITHTON AERODROME Lat: -40.83 Lon: 145.08 Height: 7.5 m
Data from the previous 72 hours. | See also: Recent months at Smithton
Date/Time
EDT
Temp
°C
App
Temp
°C
Dew
Point
°C
Rel
Hum
%
Delta-T
°C
Wind Press
QNH
hPa
Press
MSL
hPa
Rain since
9am
mm
Dir  Spd
km/h
Gust
km/h
Spd
kts
Gust
kts
18/03:30pm 22.0 17.7 9.2 44 6.8 SSW 22 30 12 16 1016.6 1016.6 0.0
18/03:00pm 22.2 18.3 9.4 44 6.9 S 20 35 11 19 1016.6 1016.6 0.0
18/02:30pm 22.4 18.4 9.2 43 7.1 SSW 20 33 11 18 1016.6 1016.6 0.0
18/02:00pm 21.6 17.1 10.1 48 6.2 SSW 24 35 13 19 1016.7 1016.7 0.0
18/01:30pm 21.5 17.6 8.7 44 6.8 SSW 19 32 10 17 1016.7 1016.7 0.0
18/01:00pm 21.7 18.0 10.2 48 6.2 S 20 30 11 16 1016.8 1016.8 0.0
18/12:30pm 19.8 14.0 9.4 51 5.5 S 30 39 16 21 1016.9 1016.9 0.0
18/12:08pm 20.7 15.7 11.1 54 5.3 S 28 48 15 26 1016.7 1016.7 0.0
18/12:00pm 20.3 15.1 10.4 53 5.4 SSW 28 35 15 19 1016.7 1016.7 0.0
18/11:30am 19.5 14.9 11.0 58 4.6 SSW 26 35 14 19 1016.7 1016.7 0.0
18/11:00am 19.4 14.5 9.9 54 5.1 SSW 26 37 14 20 1016.9 1016.9 0.0
18/10:30am 18.5 12.2 9.0 54 5.0 S 32 39 17 21 1016.9 1016.9 0.0
18/10:00am 18.2 12.3 10.3 60 4.2 SSW 32 41 17 22 1016.8 1016.8 0.0
18/09:30am 17.4 12.5 11.4 68 3.3 SSW 28 39 15 21 1016.6 1016.6 0.0
18/09:00am 16.1 11.1 11.1 72 2.7 SSW 28 39 15 21 1016.5 1016.5 0.0
18/08:30am 15.8 11.6 11.0 73 2.6 S 24 35 13 19 1016.1 1016.1 0.0
18/08:00am 14.6 11.2 11.2 80 1.8 S 20 28 11 15 1015.8 1015.8 0.0
18/07:30am 14.2 11.0 11.4 83 1.5 S 19 26 10 14 1015.6 1015.6 0.0
18/07:00am 13.0 10.5 11.1 88 1.0 SSW 15 19 8 10 1015.2 1015.2 0.0
18/06:30am 13.2 11.1 11.1 87 1.1 SSW 13 20 7 11 1014.8 1014.8 0.0
18/06:00am 12.7 10.1 10.8 88 1.0 SSW 15 20 8 11 1014.5 1014.5 0.0
18/05:30am 13.1 11.8 11.2 88 1.0 SW 9 11 5 6 1014.2 1014.2 0.0
18/05:00am 12.6 10.4 10.7 88 1.0 SSW 13 13 7 7 1013.9 1013.9 0.0
18/04:30am 13.2 11.0 10.7 85 1.3 SW 13 17 7 9 1013.8 1013.8 0.0
18/04:00am 13.3 10.3 10.5 83 1.5 SSW 17 24 9 13 1013.6 1013.6 0.0
18/03:30am 13.2 10.7 11.1 87 1.1 SSW 15 19 8 10 1013.6 1013.6 0.0
18/03:00am 13.5 11.0 11.2 86 1.2 SW 15 20 8 11 1013.9 1013.9 0.0
18/02:30am 13.3 11.1 10.8 85 1.3 SW 13 15 7 8 1013.9 1013.9 0.0
18/02:00am 13.1 10.8 10.5 84 1.4 SW 13 17 7 9 1013.9 1013.9 0.0
18/01:30am 12.9 9.9 10.6 86 1.2 SW 17 24 9 13 1014.0 1014.0 0.0
18/01:00am 13.5 11.0 11.0 85 1.3 SW 15 20 8 11 1013.8 1013.8 0.0
18/12:30am 12.9 9.7 9.9 82 1.5 SW 17 20 9 11 1013.6 1013.6 0.0
18/12:00am 13.3 10.0 9.7 79 1.8 WSW 17 24 9 13 1013.4 1013.4 0.0
 
Date/Time
EDT
Temp
°C
App
Temp
°C
Dew
Point
°C
Rel
Hum
%
Delta-T
°C
Wind Press
QNH
hPa
Press
MSL
hPa
Rain since
9am
mm
Dir  Spd
km/h
Gust
km/h
Spd
kts
Gust
kts
17/11:30pm 14.5 10.1 10.3 76 2.2 SW 24 33 13 18 1013.3 1013.3 0.0
17/11:00pm 14.7 10.3 10.5 76 2.2 WSW 24 32 13 17 1013.1 1013.1 0.0
17/10:30pm 14.3 10.8 10.1 76 2.2 WSW 19 24 10 13 1013.1 1013.1 0.0
17/10:00pm 14.8 11.4 10.6 76 2.2 WSW 19 24 10 13 1012.9 1012.9 0.0
17/09:30pm 14.4 11.2 10.0 75 2.3 WSW 17 24 9 13 1012.7 1012.7 0.0
17/09:00pm 14.7 11.2 10.1 74 2.4 SW 19 26 10 14 1012.5 1012.5 0.0
17/08:30pm 15.5 11.5 10.3 71 2.7 SW 22 32 12 17 1012.1 1012.1 0.0
17/08:00pm 16.0 11.8 9.9 67 3.2 SW 22 28 12 15 1011.8 1011.8 0.0
17/07:30pm 16.3 11.3 9.5 64 3.5 WSW 26 35 14 19 1011.4 1011.4 0.0
17/07:00pm 17.2 12.4 10.3 64 3.7 SW 26 35 14 19 1010.9 1010.9 0.0
17/06:30pm 17.2 11.3 10.3 64 3.7 SW 32 41 17 22 1010.5 1010.5 0.0
17/06:00pm 17.7 12.6 10.6 63 3.8 SW 28 35 15 19 1010.4 1010.4 0.0
17/05:30pm 18.3 11.9 8.6 53 5.0 SW 32 41 17 22 1010.0 1010.0 0.0
17/05:00pm 18.3 11.4 7.4 49 5.5 SW 33 48 18 26 1009.9 1009.9 0.0
17/04:30pm 20.1 13.4 8.1 46 6.2 WSW 33 44 18 24 1009.8 1009.8 0.0
17/04:10pm 20.5 13.4 8.2 45 6.4 WSW 35 48 19 26 1009.5 1009.5 0.0
17/04:00pm 20.1 14.0 8.4 47 6.1 WSW 30 44 16 24 1009.5 1009.5 0.0
17/03:30pm 19.8 13.3 8.2 47 6.0 WSW 32 48 17 26 1009.0 1009.0 0.0
17/03:00pm 20.8 14.3 10.3 51 5.7 SW 35 50 19 27 1009.2 1009.2 0.0
17/02:30pm 20.6 14.3 11.2 55 5.2 SW 35 50 19 27 1008.8 1008.8 0.0
17/02:00pm 20.8 14.8 10.9 53 5.4 SW 33 43 18 23 1008.6 1008.6 0.0
17/01:30pm 20.8 14.7 11.7 56 5.1 SW 35 48 19 26 1008.5 1008.5 0.0
17/01:00pm 21.5 15.7 12.6 57 5.1 WSW 35 44 19 24 1008.4 1008.4 0.0
17/12:30pm 21.5 16.2 12.4 56 5.1 SW 32 41 17 22 1008.4 1008.4 0.0
17/12:00pm 20.6 14.9 11.2 55 5.2 WSW 32 44 17 24 1008.4 1008.4 0.0
17/11:30am 21.5 16.9 12.4 56 5.1 SW 28 39 15 21 1008.2 1008.2 0.0
17/11:00am 21.0 16.7 13.2 61 4.5 WSW 28 41 15 22 1008.0 1008.0 0.0
17/10:30am 19.3 14.0 12.6 65 3.8 WSW 32 39 17 21 1007.8 1007.8 0.0
17/10:00am 19.7 15.6 13.9 69 3.3 SW 28 35 15 19 1007.9 1007.9 0.0
17/09:30am 19.0 15.5 13.4 70 3.2 WSW 24 30 13 16 1007.9 1007.9 0.0
17/09:00am 18.8 16.1 13.6 72 3.0 SW 20 30 11 16 1007.9 1007.9 0.0
17/08:30am 17.9 15.2 13.6 76 2.4 SW 20 28 11 15 1007.8 1007.8 0.0
17/08:00am 17.6 15.4 14.5 82 1.8 SW 19 24 10 13 1008.1 1008.1 0.0
17/07:30am 16.3 15.1 15.0 92 0.8 WSW 15 19 8 10 1007.7 1007.7 0.0
17/07:00am 15.1 15.1 14.3 95 0.5 S 7 9 4 5 1006.4 1006.3 0.0
17/06:30am 15.0 14.6 14.2 95 0.5 SSW 9 11 5 6 1006.8 1006.7 0.0
17/06:00am 15.8 15.4 15.2 96 0.3 SW 11 15 6 8 1006.6 1006.5 0.0
17/05:30am 15.5 15.4 14.9 96 0.3 SSW 9 11 5 6 1006.2 1006.1 0.0
17/05:00am 15.4 15.2 14.8 96 0.3 SSW 9 11 5 6 1006.1 1006.0 0.0
17/04:30am 15.3 15.7 14.8 97 0.3 S 6 9 3 5 1005.8 1005.7 0.0
17/04:00am 15.0 14.7 14.4 96 0.3 SSW 9 11 5 6 1006.2 1006.1 0.0
17/03:30am 15.0 14.7 14.4 96 0.3 S 9 9 5 5 1006.4 1006.3 0.0
17/03:00am 15.2 15.4 14.6 96 0.3 S 7 9 4 5 1006.7 1006.6 0.0
17/02:30am 15.6 15.8 14.8 95 0.5 SSE 7 11 4 6 1006.7 1006.6 0.0
17/02:00am 16.5 17.3 15.9 96 0.4 ENE 6 11 3 6 1006.7 1006.6 0.0
17/01:30am 15.7 16.0 15.1 96 0.3 ENE 7 9 4 5 1006.6 1006.5 0.0
17/01:00am 15.5 15.0 14.9 96 0.3 NE 11 13 6 7 1006.8 1006.7 0.0
17/12:30am 15.4 14.9 14.8 96 0.3 NE 11 13 6 7 1006.6 1006.5 0.0
17/12:00am 15.0 14.3 14.2 95 0.5 ENE 11 13 6 7 1006.2 1006.1 0.0
 
Date/Time
EDT
Temp
°C
App
Temp
°C
Dew
Point
°C
Rel
Hum
%
Delta-T
°C
Wind Press
QNH
hPa
Press
MSL
hPa
Rain since
9am
mm
Dir  Spd
km/h
Gust
km/h
Spd
kts
Gust
kts
16/11:30pm 14.8 14.3 13.8 94 0.6 ENE 9 11 5 6 1006.1 1006.0 0.0
16/11:00pm 15.1 14.8 14.3 95 0.5 ENE 9 13 5 7 1006.0 1005.9 0.0
16/10:30pm 14.7 14.4 13.4 92 0.7 NE 7 9 4 5 1006.4 1006.3 0.0
16/10:00pm 14.8 14.6 13.0 89 1.0 ENE 6 9 3 5 1006.3 1006.2 0.0
16/09:30pm 15.8 16.7 12.9 83 1.6 CALM 0 6 0 3 1006.4 1006.3 0.0
16/09:00pm 17.4 17.2 13.7 79 2.1 NW 7 9 4 5 1006.5 1006.4 0.0
16/08:30pm 19.1 19.0 13.9 72 3.0 NW 7 11 4 6 1006.3 1006.2 0.0
16/08:00pm 20.1 19.5 13.6 66 3.7 NW 9 13 5 7 1006.2 1006.1 0.0
16/07:30pm 20.9 19.3 12.8 60 4.6 NW 13 15 7 8 1006.2 1006.1 0.0
16/07:00pm 21.4 19.2 13.3 60 4.7 NW 17 22 9 12 1006.2 1006.1 0.0
16/06:30pm 21.8 19.1 13.4 59 4.8 NW 20 26 11 14 1006.3 1006.2 0.0
16/06:00pm 22.7 19.7 13.7 56 5.2 NW 22 28 12 15 1006.5 1006.4 0.0
16/05:30pm 22.9 19.6 12.8 53 5.8 NW 22 32 12 17 1006.5 1006.4 0.0
16/05:00pm 23.6 20.0 14.3 56 5.5 NW 26 33 14 18 1006.5 1006.4 0.0
16/04:30pm 24.2 20.9 14.9 56 5.6 NW 26 32 14 17 1006.5 1006.4 0.0
16/04:00pm 24.2 20.8 15.7 59 5.2 NW 28 35 15 19 1006.6 1006.5 0.0
16/03:30pm 24.7 22.2 16.2 59 5.2 NW 24 32 13 17 1006.8 1006.7 0.0
16/03:00pm 24.0 21.1 15.2 58 5.3 NW 24 33 13 18 1007.0 1007.0 0.0
16/02:30pm 24.6 22.2 16.3 60 5.1 NW 24 32 13 17 1007.3 1007.3 0.0
16/02:00pm 24.2 24.3 15.4 58 5.3 WNW 9 24 5 13 1007.8 1007.8 0.0
16/01:30pm 24.2 23.9 15.4 58 5.3 WNW 11 19 6 10 1007.9 1007.9 0.0
16/01:00pm 22.8 22.3 13.8 57 5.3 W 9 20 5 11 1007.9 1007.9 0.0
16/12:30pm 22.5 21.8 14.4 60 4.8 W 11 19 6 10 1008.1 1008.1 0.0
16/12:00pm 22.1 21.7 15.2 65 4.1 SW 11 19 6 10 1008.3 1008.3 0.0
16/11:30am 20.9 19.8 14.3 66 3.8 WSW 13 19 7 10 1008.0 1008.0 0.0
16/11:00am 20.1 18.8 13.6 66 3.7 SW 13 19 7 10 1008.2 1008.2 0.0
16/10:30am 19.7 17.8 12.9 65 3.8 SSW 15 24 8 13 1008.3 1008.3 0.0
16/10:00am 19.1 16.9 13.3 69 3.3 SW 17 22 9 12 1008.5 1008.5 0.0
16/09:30am 18.2 16.5 13.5 74 2.7 SW 15 20 8 11 1008.4 1008.4 0.0
16/09:00am 18.1 16.4 13.6 75 2.6 SW 15 20 8 11 1008.2 1008.2 1.0
16/08:30am 17.3 14.8 13.4 78 2.2 SW 19 24 10 13 1008.1 1008.1 1.0
16/08:00am 16.2 14.8 13.5 84 1.5 SSW 13 17 7 9 1007.8 1007.8 1.0
16/07:30am 15.3 13.5 13.2 87 1.2 SW 15 17 8 9 1007.9 1007.9 1.0
16/07:00am 15.3 14.0 13.7 90 0.9 WSW 13 19 7 10 1007.4 1007.4 1.0
16/06:30am 14.9 13.3 13.8 93 0.6 WSW 15 19 8 10 1007.1 1007.1 1.0
16/06:00am 15.0 14.2 14.0 94 0.6 WSW 11 15 6 8 1007.0 1007.0 1.0
16/05:30am 14.9 13.6 13.8 93 0.6 SW 13 15 7 8 1006.6 1006.5 1.0
16/05:00am 15.3 14.6 14.2 93 0.6 SW 11 15 6 8 1006.5 1006.4 1.0
16/04:30am 15.4 14.7 14.3 93 0.6 SW 11 15 6 8 1006.4 1006.3 1.0
16/04:00am 15.5 13.7 14.4 93 0.6 WSW 17 20 9 11 1006.6 1006.5 1.0
16/03:30am 15.5 14.1 14.4 93 0.6 WSW 15 20 8 11 1006.4 1006.3 1.0
16/03:00am 15.2 13.8 14.4 95 0.5 WSW 15 19 8 10 1006.1 1006.0 1.0
16/02:30am 14.5 13.2 13.7 95 0.4 WSW 13 17 7 9 1006.2 1006.1 1.0
16/02:00am 14.3 13.2 13.2 93 0.6 SW 11 13 6 7 1006.0 1005.9 1.0
16/01:30am 15.0 13.7 13.7 92 0.7 SW 13 17 7 9 1006.2 1006.1 1.0
16/01:00am 15.6 13.3 14.1 91 0.9 SW 19 26 10 14 1006.1 1006.0 1.0
16/12:30am 15.8 13.6 14.3 91 0.9 SW 19 26 10 14 1006.2 1006.1 1.0
16/12:00am 16.0 13.9 14.7 92 0.7 SW 19 24 10 13 1006.2 1006.1 1.0
 
Date/Time
EDT
Temp
°C
App
Temp
°C
Dew
Point
°C
Rel
Hum
%
Delta-T
°C
Wind Press
QNH
hPa
Press
MSL
hPa
Rain since
9am
mm
Dir  Spd
km/h
Gust
km/h
Spd
kts
Gust
kts
15/11:30pm 16.1 13.9 14.8 92 0.7 WSW 20 28 11 15 1006.0 1005.9 1.0
15/11:00pm 16.1 13.1 14.8 92 0.7 WSW 24 32 13 17 1005.9 1005.8 1.0
15/10:30pm 16.0 13.4 14.9 93 0.6 WSW 22 30 12 16 1005.8 1005.7 1.0
15/10:00pm 16.2 14.3 15.2 94 0.6 WSW 19 24 10 13 1005.9 1005.8 1.0
15/09:30pm 16.2 14.2 15.4 95 0.5 WSW 20 26 11 14 1005.8 1005.7 1.0
15/09:00pm 16.5 15.0 15.4 93 0.6 WSW 17 24 9 13 1005.6 1005.5 1.0
15/08:30pm 17.2 15.6 15.0 87 1.3 WSW 17 24 9 13 1005.2 1005.1 1.0
15/08:00pm 17.3 13.9 14.8 85 1.5 SW 26 33 14 18 1003.4 1003.3 1.0
15/07:30pm 17.8 14.8 14.9 83 1.7 WSW 24 32 13 17 1003.5 1003.4 1.0
15/07:27pm 17.9 15.0 15.0 83 1.7 WSW 24 32 13 17 1003.7 1003.6 1.0
15/07:15pm 18.3 15.4 15.2 82 1.8 WSW 24 30 13 16 1006.0 1005.9 1.0
15/07:00pm 18.5 15.7 15.4 82 1.8 WSW 24 33 13 18 1003.8 1003.7 1.0
15/06:30pm 18.5 15.6 15.0 80 2.0 SW 24 37 13 20 1003.7 1003.6 1.0
15/06:00pm 18.1 14.9 15.4 84 1.6 WSW 26 35 14 19 1003.5 1003.4 1.0
15/05:30pm 19.0 16.0 15.9 82 1.8 WSW 26 32 14 17 1003.2 1003.1 1.0
15/05:00pm 18.4 14.6 15.8 85 1.5 SW 30 39 16 21 1003.3 1003.2 1.0
15/04:30pm 18.9 15.1 15.8 82 1.8 WSW 30 39 16 21 1003.3 1003.2 1.0
15/04:00pm 19.2 16.6 15.9 81 2.0 WSW 24 35 13 19 1003.2 1003.1 1.0

Other formats

Comma delimited format used in spreadsheet applications
http://www.bom.gov.au/fwo/IDT60801/IDT60801.94953.axf

JavaScript Object Notation format (JSON) in row-major order
http://www.bom.gov.au/fwo/IDT60801/IDT60801.94953.json

Data quality

Most of these data are generated automatically and are frequently updated. Quality checks on data are not normally performed. It is possible for incorrect values to appear. Refer to information at About Latest Weather Observations and please check the disclaimer before using these data.